createdAt,value
2018-06-23T00:00:03.817Z,0.00
2018-06-23T00:01:03.878Z,0.00
2018-06-23T00:02:03.932Z,0.00
2018-06-23T00:03:03.996Z,0.00
2018-06-23T00:04:04.048Z,0.00
2018-06-23T00:05:04.106Z,0.00
2018-06-23T00:06:04.162Z,0.00
2018-06-23T00:07:04.219Z,0.00
2018-06-23T00:08:04.276Z,0.00
2018-06-23T00:09:04.336Z,0.00
2018-06-23T00:10:04.391Z,0.00
2018-06-23T00:11:04.449Z,0.00
2018-06-23T00:12:04.506Z,0.00
2018-06-23T00:13:04.564Z,0.00
2018-06-23T00:14:04.623Z,0.00
2018-06-23T00:15:04.679Z,0.00
2018-06-23T00:16:04.736Z,0.00
2018-06-23T00:17:04.796Z,0.00
2018-06-23T00:18:04.851Z,0.00
2018-06-23T00:19:04.910Z,0.00
2018-06-23T00:20:04.965Z,0.00
2018-06-23T00:21:05.023Z,0.00
2018-06-23T00:22:05.080Z,0.00
2018-06-23T00:23:05.137Z,0.00
2018-06-23T00:24:05.193Z,0.00
2018-06-23T00:25:05.252Z,0.00
2018-06-23T00:26:05.311Z,0.00
2018-06-23T00:27:05.367Z,0.00
2018-06-23T00:28:05.425Z,0.00
2018-06-23T00:29:05.482Z,0.00
2018-06-23T00:30:05.539Z,0.00
2018-06-23T00:31:05.595Z,0.00
2018-06-23T00:32:05.653Z,0.00
2018-06-23T00:33:05.711Z,0.00
2018-06-23T00:34:05.768Z,0.00
2018-06-23T00:35:05.825Z,0.00
2018-06-23T00:36:06.133Z,0.00
2018-06-23T00:37:05.941Z,0.00
2018-06-23T00:38:05.998Z,0.00
2018-06-23T00:39:06.055Z,0.00
2018-06-23T00:40:06.111Z,0.00
2018-06-23T00:41:06.169Z,0.00
2018-06-23T00:42:06.227Z,0.00
2018-06-23T00:43:06.282Z,0.00
2018-06-23T00:44:06.340Z,0.00
2018-06-23T00:45:06.398Z,0.00
2018-06-23T00:46:06.455Z,0.00
2018-06-23T00:47:06.512Z,0.00
2018-06-23T00:48:06.569Z,0.00
2018-06-23T00:49:06.625Z,0.00
2018-06-23T00:50:06.685Z,0.00
2018-06-23T00:51:06.740Z,0.00
2018-06-23T00:52:06.798Z,0.00
2018-06-23T00:53:06.856Z,0.00
2018-06-23T00:54:06.913Z,0.00
2018-06-23T00:55:06.969Z,0.00
2018-06-23T00:56:07.030Z,0.00
2018-06-23T00:57:07.085Z,0.00
2018-06-23T00:58:07.140Z,0.00
2018-06-23T00:59:07.198Z,0.00
2018-06-23T01:00:07.256Z,0.00
2018-06-23T01:01:07.312Z,0.00
2018-06-23T01:02:07.370Z,0.00
2018-06-23T01:03:07.426Z,0.00
2018-06-23T01:04:07.484Z,0.00
2018-06-23T01:05:07.541Z,0.00
2018-06-23T01:06:07.598Z,0.00
2018-06-23T01:07:07.654Z,0.00
2018-06-23T01:08:07.710Z,0.00
2018-06-23T01:09:07.769Z,0.00
2018-06-23T01:10:07.825Z,0.00
2018-06-23T01:11:07.883Z,0.00
2018-06-23T01:12:07.939Z,0.00
2018-06-23T01:13:07.997Z,0.00
2018-06-23T01:14:08.054Z,0.00
2018-06-23T01:15:08.109Z,0.00
2018-06-23T01:16:08.167Z,0.00
2018-06-23T01:17:08.225Z,0.00
2018-06-23T01:18:08.281Z,0.00
2018-06-23T01:19:08.337Z,0.00
2018-06-23T01:20:08.395Z,0.00
2018-06-23T01:21:08.452Z,0.00
2018-06-23T01:22:08.509Z,0.00
2018-06-23T01:23:08.565Z,0.00
2018-06-23T01:24:08.623Z,0.00
2018-06-23T01:25:08.679Z,0.00
2018-06-23T01:26:08.737Z,0.00
2018-06-23T01:27:08.796Z,0.00
2018-06-23T01:28:08.850Z,0.00
2018-06-23T01:29:08.907Z,0.00
2018-06-23T01:30:08.966Z,0.00
2018-06-23T01:31:09.019Z,0.00
2018-06-23T01:32:09.077Z,0.00
2018-06-23T01:33:09.136Z,0.00
2018-06-23T01:34:09.196Z,0.00
2018-06-23T01:35:09.248Z,0.00
2018-06-23T01:36:09.305Z,0.00
2018-06-23T01:37:09.362Z,0.00
2018-06-23T01:38:09.419Z,0.00
2018-06-23T01:39:09.475Z,0.00
2018-06-23T01:40:09.532Z,0.00
2018-06-23T01:41:09.590Z,0.00
2018-06-23T01:42:09.649Z,0.00
2018-06-23T01:43:09.707Z,0.00
2018-06-23T01:44:09.759Z,0.00
2018-06-23T01:45:09.819Z,0.00
2018-06-23T01:46:09.873Z,0.00
2018-06-23T01:47:09.931Z,0.00
2018-06-23T01:48:09.987Z,0.00
2018-06-23T01:49:10.047Z,0.00
2018-06-23T01:50:10.353Z,0.00
2018-06-23T01:51:10.159Z,0.00
2018-06-23T01:52:10.213Z,0.00
2018-06-23T01:53:10.272Z,0.00
2018-06-23T01:54:10.328Z,0.00
2018-06-23T01:55:10.385Z,0.00
2018-06-23T01:56:10.442Z,0.00
2018-06-23T01:57:10.499Z,0.00
2018-06-23T01:58:10.558Z,0.00
2018-06-23T01:59:10.614Z,0.00
2018-06-23T02:00:10.670Z,0.00
2018-06-23T02:01:10.727Z,0.00
2018-06-23T02:02:10.784Z,0.00
2018-06-23T02:03:10.839Z,0.00
2018-06-23T02:04:10.897Z,0.00
2018-06-23T02:05:10.954Z,0.00
2018-06-23T02:06:11.019Z,0.00
2018-06-23T02:07:11.068Z,0.00
2018-06-23T02:08:11.128Z,0.00
2018-06-23T02:09:11.183Z,0.00
2018-06-23T02:10:11.239Z,0.00
2018-06-23T02:11:11.295Z,0.00
2018-06-23T02:12:11.356Z,0.00
2018-06-23T02:13:11.410Z,0.00
2018-06-23T02:14:11.467Z,0.00
2018-06-23T02:15:11.532Z,0.00
2018-06-23T02:16:11.581Z,0.00
2018-06-23T02:17:11.639Z,0.00
2018-06-23T02:18:11.698Z,0.00
2018-06-23T02:19:11.754Z,0.00
2018-06-23T02:20:11.808Z,0.00
2018-06-23T02:21:11.865Z,0.00
2018-06-23T02:22:11.922Z,0.00
2018-06-23T02:23:11.979Z,0.00
2018-06-23T02:24:12.035Z,0.00
2018-06-23T02:25:12.092Z,0.00
2018-06-23T02:26:12.150Z,0.00
2018-06-23T02:27:12.206Z,0.00
2018-06-23T02:28:12.263Z,0.00
2018-06-23T02:29:12.570Z,0.00
2018-06-23T02:30:12.377Z,0.00
2018-06-23T02:31:12.434Z,0.00
2018-06-23T02:32:12.491Z,0.00
2018-06-23T02:33:12.547Z,0.00
2018-06-23T02:34:12.603Z,0.00
2018-06-23T02:35:12.662Z,0.00
2018-06-23T02:36:12.718Z,0.00
2018-06-23T02:37:12.776Z,0.00
2018-06-23T02:38:12.833Z,0.00
2018-06-23T02:39:12.890Z,0.00
2018-06-23T02:40:12.945Z,0.00
2018-06-23T02:41:13.001Z,0.00
2018-06-23T02:42:13.060Z,0.00
2018-06-23T02:43:13.115Z,0.00
2018-06-23T02:44:13.173Z,0.00
2018-06-23T02:45:13.229Z,0.00
2018-06-23T02:46:13.287Z,4.00
2018-06-23T02:47:13.343Z,4.00
2018-06-23T02:48:13.400Z,4.00
2018-06-23T02:49:13.456Z,0.00
2018-06-23T02:50:13.514Z,4.00
2018-06-23T02:51:13.570Z,4.00
2018-06-23T02:52:13.876Z,4.00
2018-06-23T02:53:13.684Z,8.00
2018-06-23T02:54:13.741Z,8.00
2018-06-23T02:55:13.796Z,12.00
2018-06-23T02:56:13.855Z,12.00
2018-06-23T02:57:13.912Z,12.00
2018-06-23T02:58:13.968Z,16.00
2018-06-23T02:59:14.025Z,16.00
2018-06-23T03:00:14.097Z,20.00
2018-06-23T03:01:14.143Z,24.00
2018-06-23T03:02:14.198Z,28.00
2018-06-23T03:03:14.252Z,32.00
2018-06-23T03:04:14.312Z,36.00
2018-06-23T03:05:14.368Z,40.00
2018-06-23T03:06:14.426Z,48.00
2018-06-23T03:07:14.481Z,52.00
2018-06-23T03:08:14.539Z,60.00
2018-06-23T03:09:14.595Z,68.00
2018-06-23T03:10:14.653Z,72.00
2018-06-23T03:11:14.712Z,84.00
2018-06-23T03:12:14.769Z,92.00
2018-06-23T03:13:14.827Z,96.00
2018-06-23T03:14:14.882Z,104.00
2018-06-23T03:15:14.939Z,116.00
2018-06-23T03:16:14.997Z,132.00
2018-06-23T03:17:15.053Z,140.00
2018-06-23T03:18:15.110Z,160.00
2018-06-23T03:19:15.168Z,168.00
2018-06-23T03:20:15.232Z,180.00
2018-06-23T03:21:15.283Z,192.00
2018-06-23T03:22:15.342Z,204.00
2018-06-23T03:23:15.396Z,216.00
2018-06-23T03:24:15.453Z,236.00
2018-06-23T03:25:15.512Z,248.00
2018-06-23T03:26:15.575Z,264.00
2018-06-23T03:27:15.624Z,276.00
2018-06-23T03:28:15.683Z,292.00
2018-06-23T03:29:15.741Z,308.00
2018-06-23T03:30:15.797Z,332.00
2018-06-23T03:31:15.853Z,352.00
2018-06-23T03:32:15.911Z,372.00
2018-06-23T03:33:15.969Z,384.00
2018-06-23T03:34:16.025Z,396.00
2018-06-23T03:35:16.082Z,412.00
2018-06-23T03:36:16.389Z,432.00
2018-06-23T03:37:16.197Z,452.00
2018-06-23T03:38:16.253Z,468.00
2018-06-23T03:39:16.310Z,484.00
2018-06-23T03:40:16.367Z,508.00
2018-06-23T03:41:16.425Z,528.00
2018-06-23T03:42:16.481Z,564.00
2018-06-23T03:43:16.538Z,592.00
2018-06-23T03:44:16.594Z,604.00
2018-06-23T03:45:16.654Z,612.00
2018-06-23T03:46:16.709Z,628.00
2018-06-23T03:47:16.764Z,644.00
2018-06-23T03:48:16.822Z,668.00
2018-06-23T03:49:16.880Z,688.00
2018-06-23T03:50:16.937Z,704.00
2018-06-23T03:51:16.994Z,720.00
2018-06-23T03:52:17.050Z,736.00
2018-06-23T03:53:17.107Z,768.00
2018-06-23T03:54:17.165Z,796.00
2018-06-23T03:55:17.221Z,832.00
2018-06-23T03:56:17.278Z,872.00
2018-06-23T03:57:17.335Z,900.00
2018-06-23T03:58:17.392Z,908.00
2018-06-23T03:59:17.447Z,924.00
2018-06-23T04:00:17.540Z,944.00
2018-06-23T04:01:17.579Z,976.00
2018-06-23T04:02:17.620Z,1016.00
2018-06-23T04:03:17.678Z,1060.00
2018-06-23T04:04:17.734Z,1096.00
2018-06-23T04:05:17.792Z,1132.00
2018-06-23T04:06:17.860Z,1180.00
2018-06-23T04:07:17.908Z,1220.00
2018-06-23T04:08:17.965Z,1268.00
2018-06-23T04:09:18.021Z,1336.00
2018-06-23T04:10:18.078Z,1376.00
2018-06-23T04:11:18.135Z,1384.00
2018-06-23T04:12:18.192Z,1424.00
2018-06-23T04:13:18.250Z,1476.00
2018-06-23T04:14:18.306Z,1524.00
2018-06-23T04:15:18.364Z,1552.00
2018-06-23T04:16:18.421Z,1604.00
2018-06-23T04:17:18.477Z,1656.00
2018-06-23T04:18:18.536Z,1692.00
2018-06-23T04:19:18.593Z,1696.00
2018-06-23T04:20:18.650Z,1700.00
2018-06-23T04:21:18.709Z,1752.00
2018-06-23T04:22:18.765Z,1852.00
2018-06-23T04:23:18.822Z,1972.00
2018-06-23T04:24:18.880Z,2084.00
2018-06-23T04:25:18.937Z,2164.00
2018-06-23T04:26:18.995Z,2228.00
2018-06-23T04:27:19.052Z,2264.00
2018-06-23T04:28:19.110Z,2348.00
2018-06-23T04:29:19.185Z,2504.00
2018-06-23T04:30:19.226Z,2788.00
2018-06-23T04:31:19.282Z,2940.00
2018-06-23T04:32:19.338Z,2884.00
2018-06-23T04:33:19.396Z,2816.00
2018-06-23T04:34:19.455Z,2884.00
2018-06-23T04:35:19.512Z,2880.00
2018-06-23T04:36:19.969Z,2940.00
2018-06-23T04:37:19.631Z,3352.00
2018-06-23T04:38:19.685Z,3492.00
2018-06-23T04:39:19.742Z,3356.00
2018-06-23T04:40:19.799Z,3284.00
2018-06-23T04:41:20.516Z,3372.00
2018-06-23T04:42:20.719Z,3512.00
2018-06-23T04:43:20.606Z,3704.00
2018-06-23T04:44:20.732Z,3908.00
2018-06-23T04:45:20.088Z,4264.00
2018-06-23T04:46:20.146Z,4556.00
2018-06-23T04:47:20.202Z,4700.00
2018-06-23T04:48:20.260Z,4768.00
2018-06-23T04:49:20.318Z,4772.00
2018-06-23T04:50:20.376Z,4796.00
2018-06-23T04:51:20.433Z,4788.00
2018-06-23T04:52:20.491Z,4868.00
2018-06-23T04:53:20.551Z,4808.00
2018-06-23T04:54:20.607Z,4352.00
2018-06-23T04:55:20.665Z,3632.00
2018-06-23T04:56:20.723Z,3316.00
2018-06-23T04:57:20.780Z,3508.00
2018-06-23T04:58:20.838Z,3892.00
2018-06-23T04:59:20.898Z,3780.00
2018-06-23T05:00:20.981Z,2992.00
2018-06-23T05:01:21.012Z,2904.00
2018-06-23T05:02:21.072Z,2912.00
2018-06-23T05:03:21.128Z,2760.00
2018-06-23T05:04:21.185Z,2900.00
2018-06-23T05:05:21.247Z,3264.00
2018-06-23T05:06:21.300Z,3436.00
2018-06-23T05:07:21.363Z,3716.00
2018-06-23T05:08:21.418Z,3956.00
2018-06-23T05:09:21.475Z,4176.00
2018-06-23T05:10:21.784Z,4300.00
2018-06-23T05:11:21.595Z,4296.00
2018-06-23T05:12:21.693Z,4540.00
2018-06-23T05:13:21.709Z,5144.00
2018-06-23T05:14:21.767Z,5692.00
2018-06-23T05:15:21.825Z,6080.00
2018-06-23T05:16:21.880Z,5876.00
2018-06-23T05:17:21.939Z,5960.00
2018-06-23T05:18:21.998Z,6160.00
2018-06-23T05:19:22.055Z,6448.00
2018-06-23T05:20:22.115Z,6660.00
2018-06-23T05:21:22.172Z,6892.00
2018-06-23T05:22:22.231Z,6808.00
2018-06-23T05:23:22.288Z,6792.00
2018-06-23T05:24:22.347Z,6768.00
2018-06-23T05:25:22.405Z,6780.00
2018-06-23T05:26:22.464Z,6448.00
2018-06-23T05:27:22.521Z,6252.00
2018-06-23T05:28:22.579Z,6184.00
2018-06-23T05:29:22.640Z,5904.00
2018-06-23T05:30:22.699Z,5904.00
2018-06-23T05:31:22.755Z,5744.00
2018-06-23T05:32:22.814Z,5716.00
2018-06-23T05:33:22.873Z,6176.00
2018-06-23T05:34:22.931Z,6664.00
2018-06-23T05:35:22.991Z,7028.00
2018-06-23T05:36:23.050Z,6856.00
2018-06-23T05:37:23.107Z,6340.00
2018-06-23T05:38:23.166Z,5988.00
2018-06-23T05:39:23.375Z,5980.00
2018-06-23T05:40:23.285Z,6572.00
2018-06-23T05:41:23.341Z,7464.00
2018-06-23T05:42:23.401Z,8144.00
2018-06-23T05:43:23.460Z,8024.00
2018-06-23T05:44:23.521Z,8188.00
2018-06-23T05:45:23.578Z,8432.00
2018-06-23T05:46:23.637Z,8544.00
2018-06-23T05:47:23.696Z,8672.00
2018-06-23T05:48:23.755Z,8400.00
2018-06-23T05:49:23.813Z,7852.00
2018-06-23T05:50:23.875Z,7396.00
2018-06-23T05:51:24.028Z,7292.00
2018-06-23T05:52:23.993Z,7024.00
2018-06-23T05:53:24.053Z,6828.00
2018-06-23T05:54:24.111Z,7228.00
2018-06-23T05:55:24.170Z,7752.00
2018-06-23T05:56:24.230Z,7512.00
2018-06-23T05:57:24.293Z,6876.00
2018-06-23T05:58:24.348Z,6432.00
2018-06-23T05:59:24.412Z,6792.00
2018-06-23T06:00:24.468Z,7236.00
2018-06-23T06:01:24.528Z,7472.00
2018-06-23T06:02:24.586Z,8048.00
2018-06-23T06:03:24.646Z,8696.00
2018-06-23T06:04:24.705Z,8544.00
2018-06-23T06:05:24.765Z,8464.00
2018-06-23T06:06:24.828Z,8708.00
2018-06-23T06:07:25.133Z,7796.00
2018-06-23T06:08:24.943Z,7336.00
2018-06-23T06:09:25.005Z,7136.00
2018-06-23T06:10:25.099Z,6760.00
2018-06-23T06:11:25.121Z,6952.00
2018-06-23T06:12:25.182Z,7692.00
2018-06-23T06:13:25.244Z,7140.00
2018-06-23T06:14:25.302Z,6344.00
2018-06-23T06:15:26.024Z,6712.00
2018-06-23T06:16:26.060Z,6392.00
2018-06-23T06:17:26.056Z,6068.00
2018-06-23T06:18:26.566Z,5848.00
2018-06-23T06:19:26.165Z,5780.00
2018-06-23T06:20:26.222Z,6652.00
2018-06-23T06:21:26.296Z,7880.00
2018-06-23T06:22:26.375Z,8960.00
2018-06-23T06:23:26.541Z,9232.00
2018-06-23T06:24:26.756Z,8928.00
2018-06-23T06:25:26.683Z,9348.00
2018-06-23T06:26:26.697Z,9232.00
2018-06-23T06:27:26.725Z,9680.00
2018-06-23T06:28:26.732Z,9192.00
2018-06-23T06:29:26.840Z,8760.00
2018-06-23T06:30:30.427Z,8624.00
2018-06-23T06:31:26.323Z,8456.00
2018-06-23T06:32:26.381Z,8564.00
2018-06-23T06:33:26.444Z,8620.00
2018-06-23T06:34:27.080Z,8536.00
2018-06-23T06:35:27.175Z,7992.00
2018-06-23T06:36:27.321Z,7180.00
2018-06-23T06:37:26.682Z,7132.00
2018-06-23T06:38:26.743Z,8132.00
2018-06-23T06:39:26.802Z,9200.00
2018-06-23T06:40:26.861Z,9436.00
2018-06-23T06:41:26.923Z,9416.00
2018-06-23T06:42:27.632Z,8776.00
2018-06-23T06:43:27.646Z,9012.00
2018-06-23T06:44:27.741Z,9592.00
2018-06-23T06:45:27.754Z,10136.00
2018-06-23T06:46:27.854Z,11020.00
2018-06-23T06:47:28.047Z,11516.00
2018-06-23T06:48:28.020Z,11140.00
2018-06-23T06:49:27.985Z,10284.00
2018-06-23T06:50:28.031Z,9292.00
2018-06-23T06:51:28.013Z,8200.00
2018-06-23T06:52:28.178Z,7392.00
2018-06-23T06:53:28.108Z,6980.00
2018-06-23T06:55:28.270Z,6480.00
2018-06-23T06:56:28.328Z,6232.00
2018-06-23T06:57:28.276Z,6056.00
2018-06-23T06:58:28.732Z,6016.00
2018-06-23T06:59:28.013Z,6228.00
2018-06-23T07:00:28.085Z,6664.00
2018-06-23T07:01:28.135Z,6896.00
2018-06-23T07:02:28.196Z,7080.00
2018-06-23T07:03:28.306Z,8044.00
2018-06-23T07:04:28.316Z,8132.00
2018-06-23T07:05:28.377Z,8008.00
2018-06-23T07:06:28.439Z,8220.00
2018-06-23T07:07:28.499Z,8424.00
2018-06-23T07:08:28.559Z,8356.00
2018-06-23T07:09:28.620Z,9448.00
2018-06-23T07:10:28.681Z,9292.00
2018-06-23T07:11:28.740Z,8304.00
2018-06-23T07:12:28.801Z,8024.00
2018-06-23T07:13:28.862Z,7388.00
2018-06-23T07:14:28.923Z,8312.00
2018-06-23T07:15:28.994Z,9396.00
2018-06-23T07:16:29.044Z,10152.00
2018-06-23T07:17:29.105Z,9788.00
2018-06-23T07:18:29.166Z,8300.00
2018-06-23T07:19:29.230Z,8560.00
2018-06-23T07:20:29.287Z,9316.00
2018-06-23T07:21:29.349Z,8248.00
2018-06-23T07:22:29.410Z,7728.00
2018-06-23T07:23:29.522Z,7284.00
2018-06-23T07:24:29.530Z,6920.00
2018-06-23T07:25:29.591Z,6460.00
2018-06-23T07:26:29.652Z,6848.00
2018-06-23T07:27:29.713Z,7056.00
2018-06-23T07:28:29.774Z,6600.00
2018-06-23T07:29:29.834Z,6156.00
2018-06-23T07:30:29.896Z,5988.00
2018-06-23T07:31:29.962Z,5292.00
2018-06-23T07:32:30.168Z,5488.00
2018-06-23T07:33:30.078Z,5412.00
2018-06-23T07:34:30.246Z,5704.00
2018-06-23T07:35:30.199Z,5812.00
2018-06-23T07:36:30.265Z,5616.00
2018-06-23T07:37:30.323Z,5536.00
2018-06-23T07:38:30.637Z,5876.00
2018-06-23T07:39:30.443Z,6088.00
2018-06-23T07:40:30.504Z,6496.00
2018-06-23T07:41:30.616Z,6888.00
2018-06-23T07:42:30.628Z,6916.00
2018-06-23T07:43:30.687Z,6304.00
2018-06-23T07:44:30.749Z,5328.00
2018-06-23T07:45:30.810Z,5116.00
2018-06-23T07:46:30.881Z,5732.00
2018-06-23T07:47:30.931Z,6228.00
2018-06-23T07:48:30.993Z,6500.00
2018-06-23T07:49:31.831Z,6364.00
2018-06-23T07:50:31.721Z,5768.00
2018-06-23T07:51:31.175Z,5476.00
2018-06-23T07:52:31.237Z,5552.00
2018-06-23T07:53:31.301Z,5628.00
2018-06-23T07:54:31.360Z,5784.00
2018-06-23T07:55:31.570Z,5844.00
2018-06-23T07:56:31.481Z,5784.00
2018-06-23T07:57:31.543Z,5656.00
2018-06-23T07:58:31.603Z,5516.00
2018-06-23T07:59:31.664Z,5144.00
2018-06-23T08:00:31.725Z,4956.00
2018-06-23T08:01:31.819Z,5040.00
2018-06-23T08:02:31.848Z,5108.00
2018-06-23T08:03:31.910Z,5148.00
2018-06-23T08:04:31.971Z,5300.00
2018-06-23T08:05:32.030Z,5500.00
2018-06-23T08:06:32.094Z,5912.00
2018-06-23T08:07:32.152Z,6344.00
2018-06-23T08:08:32.212Z,6948.00
2018-06-23T08:09:32.281Z,7692.00
2018-06-23T08:10:32.335Z,8224.00
2018-06-23T08:11:32.396Z,8828.00
2018-06-23T08:12:32.707Z,9164.00
2018-06-23T08:13:32.520Z,9144.00
2018-06-23T08:14:32.586Z,9000.00
2018-06-23T08:15:32.641Z,9408.00
2018-06-23T08:16:32.702Z,9060.00
2018-06-23T08:17:32.763Z,8636.00
2018-06-23T08:18:32.838Z,8476.00
2018-06-23T08:19:32.885Z,8788.00
2018-06-23T08:20:32.947Z,10144.00
2018-06-23T08:21:33.009Z,12608.00
2018-06-23T08:22:33.072Z,15816.00
2018-06-23T08:23:33.132Z,16992.00
2018-06-23T08:24:33.194Z,17792.00
2018-06-23T08:25:33.261Z,18752.00
2018-06-23T08:26:33.411Z,20640.00
2018-06-23T08:27:33.379Z,22304.00
2018-06-23T08:28:33.440Z,23328.00
2018-06-23T08:29:33.503Z,21472.00
2018-06-23T08:30:33.566Z,20256.00
2018-06-23T08:31:33.627Z,20064.00
2018-06-23T08:32:33.690Z,20000.00
2018-06-23T08:33:33.752Z,17952.00
2018-06-23T08:34:33.814Z,15804.00
2018-06-23T08:35:33.877Z,15464.00
2018-06-23T08:36:33.942Z,16408.00
2018-06-23T08:37:34.002Z,18336.00
2018-06-23T08:38:34.066Z,21408.00
2018-06-23T08:39:34.128Z,23904.00
2018-06-23T08:40:34.191Z,25120.00
2018-06-23T08:41:34.254Z,26400.00
2018-06-23T08:42:34.316Z,26272.00
2018-06-23T08:43:34.391Z,26464.00
2018-06-23T08:44:34.446Z,27200.00
2018-06-23T08:45:34.506Z,26912.00
2018-06-23T08:46:34.570Z,26304.00
2018-06-23T08:47:34.634Z,27264.00
2018-06-23T08:48:34.699Z,28640.00
2018-06-23T08:49:34.762Z,28768.00
2018-06-23T08:50:34.826Z,28448.00
2018-06-23T08:51:35.040Z,28640.00
2018-06-23T08:52:34.957Z,28992.00
2018-06-23T08:53:35.019Z,29568.00
2018-06-23T08:54:35.083Z,29824.00
2018-06-23T08:55:35.151Z,29632.00
2018-06-23T08:56:35.212Z,28704.00
2018-06-23T08:57:35.277Z,27488.00
2018-06-23T08:58:35.342Z,26080.00
2018-06-23T08:59:35.406Z,25664.00
2018-06-23T09:00:35.471Z,25376.00
2018-06-23T09:01:35.537Z,25632.00
2018-06-23T09:02:35.602Z,26912.00
2018-06-23T09:03:35.665Z,27008.00
2018-06-23T09:04:35.731Z,26976.00
2018-06-23T09:05:35.798Z,27424.00
2018-06-23T09:06:35.864Z,28352.00
2018-06-23T09:07:35.926Z,29408.00
2018-06-23T09:08:35.994Z,29728.00
2018-06-23T09:09:36.131Z,29344.00
2018-06-23T09:10:36.124Z,28704.00
2018-06-23T09:11:36.188Z,28544.00
2018-06-23T09:12:36.257Z,29344.00
2018-06-23T09:13:36.352Z,30304.00
2018-06-23T09:14:36.386Z,30240.00
2018-06-23T09:15:36.451Z,30720.00
2018-06-23T09:16:36.517Z,30496.00
2018-06-23T09:17:36.582Z,30048.00
2018-06-23T09:18:36.652Z,30848.00
2018-06-23T09:19:36.779Z,32480.00
2018-06-23T09:20:36.784Z,33344.00
2018-06-23T09:21:36.844Z,33088.00
2018-06-23T09:22:36.911Z,33760.00
2018-06-23T09:23:36.979Z,34080.00
2018-06-23T09:24:37.042Z,33440.00
2018-06-23T09:25:37.239Z,33504.00
2018-06-23T09:26:37.375Z,33568.00
2018-06-23T09:27:37.238Z,34112.00
2018-06-23T09:28:37.303Z,34144.00
2018-06-23T09:29:37.369Z,33600.00
2018-06-23T09:30:37.434Z,33760.00
2018-06-23T09:31:37.511Z,32896.00
2018-06-23T09:32:37.573Z,32672.00
2018-06-23T09:33:37.632Z,32192.00
2018-06-23T09:34:37.698Z,31424.00
2018-06-23T09:35:37.762Z,31424.00
2018-06-23T09:36:37.829Z,31136.00
2018-06-23T09:37:37.899Z,31136.00
2018-06-23T09:38:37.961Z,31264.00
2018-06-23T09:39:38.041Z,31552.00
2018-06-23T09:40:38.093Z,31776.00
2018-06-23T09:41:38.160Z,32128.00
2018-06-23T09:42:38.225Z,31520.00
2018-06-23T09:43:38.294Z,31136.00
2018-06-23T09:44:38.357Z,31072.00
2018-06-23T09:45:38.423Z,31424.00
2018-06-23T09:46:38.490Z,32096.00
2018-06-23T09:47:38.556Z,32448.00
2018-06-23T09:48:38.622Z,32480.00
2018-06-23T09:49:38.689Z,32768.00
2018-06-23T09:50:38.754Z,32640.00
2018-06-23T09:51:38.817Z,32480.00
2018-06-23T09:52:38.885Z,32256.00
2018-06-23T09:53:38.951Z,32192.00
2018-06-23T09:54:39.016Z,31328.00
2018-06-23T09:55:39.082Z,31968.00
2018-06-23T09:56:39.150Z,33152.00
2018-06-23T09:57:39.215Z,32896.00
2018-06-23T09:58:39.281Z,32608.00
2018-06-23T09:59:39.345Z,33792.00
2018-06-23T10:00:39.412Z,37664.00
2018-06-23T10:01:39.478Z,35744.00
2018-06-23T10:02:39.544Z,35488.00
2018-06-23T10:03:39.611Z,35712.00
2018-06-23T10:04:39.676Z,35808.00
2018-06-23T10:05:39.741Z,42016.00
2018-06-23T10:06:39.810Z,41760.00
2018-06-23T10:07:40.447Z,36448.00
2018-06-23T10:08:40.489Z,63328.00
2018-06-23T10:09:40.596Z,48800.00
2018-06-23T10:10:40.688Z,108288.00
2018-06-23T10:11:40.748Z,99712.00
2018-06-23T10:12:41.030Z,96960.00
2018-06-23T10:13:40.934Z,78304.00
2018-06-23T10:14:40.969Z,77376.00
2018-06-23T10:15:41.023Z,106912.00
2018-06-23T10:16:41.055Z,74048.00
2018-06-23T10:17:40.644Z,33856.00
2018-06-23T10:18:41.188Z,34400.00
2018-06-23T10:19:41.189Z,69248.00
2018-06-23T10:20:41.275Z,61696.00
2018-06-23T10:21:41.395Z,57792.00
2018-06-23T10:22:40.876Z,71840.00
2018-06-23T10:23:41.702Z,107040.00
2018-06-23T10:24:41.679Z,102944.00
2018-06-23T10:25:41.663Z,54816.00
2018-06-23T10:26:41.763Z,33472.00
2018-06-23T10:27:41.951Z,42144.00
2018-06-23T10:28:41.813Z,28384.00
2018-06-23T10:29:42.114Z,26528.00
2018-06-23T10:30:41.942Z,25984.00
2018-06-23T10:31:42.101Z,24832.00
2018-06-23T10:32:42.179Z,24352.00
2018-06-23T10:33:42.197Z,24896.00
2018-06-23T10:34:42.531Z,24704.00
2018-06-23T10:35:42.408Z,24768.00
2018-06-23T10:36:41.833Z,24608.00
2018-06-23T10:37:41.902Z,26688.00
2018-06-23T10:38:41.970Z,33248.00
2018-06-23T10:39:42.038Z,28992.00
2018-06-23T10:40:42.105Z,32800.00
2018-06-23T10:41:42.176Z,28192.00
2018-06-23T10:42:42.241Z,35200.00
2018-06-23T10:43:42.306Z,51872.00
2018-06-23T10:44:42.374Z,43168.00
2018-06-23T10:45:42.441Z,61760.00
2018-06-23T10:46:42.509Z,71968.00
2018-06-23T10:47:42.576Z,63040.00
2018-06-23T10:48:42.644Z,38016.00
2018-06-23T10:49:42.711Z,29248.00
2018-06-23T10:50:42.779Z,24608.00
2018-06-23T10:51:42.846Z,23072.00
2018-06-23T10:52:42.915Z,23168.00
2018-06-23T10:53:42.982Z,45312.00
2018-06-23T10:54:43.052Z,65184.00
2018-06-23T10:55:43.118Z,88064.00
2018-06-23T10:56:43.187Z,91968.00
2018-06-23T10:57:43.269Z,54592.00
2018-06-23T10:58:43.325Z,38240.00
2018-06-23T10:59:43.392Z,39968.00
2018-06-23T11:00:43.461Z,48192.00
2018-06-23T11:01:43.529Z,33984.00
2018-06-23T11:02:43.751Z,28192.00
2018-06-23T11:03:43.668Z,25280.00
2018-06-23T11:04:43.760Z,23168.00
2018-06-23T11:05:43.813Z,22368.00
2018-06-23T11:06:43.875Z,22080.00
2018-06-23T11:07:43.941Z,21824.00
2018-06-23T11:08:44.013Z,21376.00
2018-06-23T11:09:44.080Z,21216.00
2018-06-23T11:10:44.149Z,21664.00
2018-06-23T11:11:44.216Z,22176.00
2018-06-23T11:12:44.287Z,21824.00
2018-06-23T11:13:44.352Z,21248.00
2018-06-23T11:14:44.421Z,21344.00
2018-06-23T11:15:44.487Z,22048.00
2018-06-23T11:16:44.556Z,22752.00
2018-06-23T11:17:44.622Z,24160.00
2018-06-23T11:18:44.840Z,26848.00
2018-06-23T11:19:44.756Z,29952.00
2018-06-23T11:20:44.823Z,33376.00
2018-06-23T11:21:44.889Z,36800.00
2018-06-23T11:22:44.956Z,73728.00
2018-06-23T11:23:45.023Z,54784.00
2018-06-23T11:24:45.090Z,52544.00
2018-06-23T11:25:45.157Z,46144.00
2018-06-23T11:26:45.223Z,43584.00
2018-06-23T11:27:45.290Z,39168.00
2018-06-23T11:28:45.358Z,36160.00
2018-06-23T11:29:45.426Z,31360.00
2018-06-23T11:30:45.494Z,30048.00
2018-06-23T11:31:45.562Z,29728.00
2018-06-23T11:32:45.632Z,27264.00
2018-06-23T11:33:45.702Z,24064.00
2018-06-23T11:34:45.765Z,21568.00
2018-06-23T11:35:45.831Z,19872.00
2018-06-23T11:36:45.902Z,18784.00
2018-06-23T11:37:45.967Z,18176.00
2018-06-23T11:38:46.037Z,17600.00
2018-06-23T11:39:46.102Z,17472.00
2018-06-23T11:40:46.169Z,17632.00
2018-06-23T11:41:46.390Z,18528.00
2018-06-23T11:42:46.305Z,19616.00
2018-06-23T11:43:46.372Z,20320.00
2018-06-23T11:44:46.445Z,21280.00
2018-06-23T11:45:46.508Z,22176.00
2018-06-23T11:46:46.573Z,23712.00
2018-06-23T11:47:46.637Z,25664.00
2018-06-23T11:48:46.704Z,27552.00
2018-06-23T11:49:46.771Z,28352.00
2018-06-23T11:50:46.837Z,26496.00
2018-06-23T11:51:46.902Z,22912.00
2018-06-23T11:52:46.969Z,20256.00
2018-06-23T11:53:47.037Z,18912.00
2018-06-23T11:54:47.105Z,18816.00
2018-06-23T11:55:47.168Z,18336.00
2018-06-23T11:56:47.233Z,17312.00
2018-06-23T11:57:47.300Z,16184.00
2018-06-23T11:58:47.366Z,16476.00
2018-06-23T11:59:47.431Z,17632.00
2018-06-23T12:00:47.497Z,18368.00
2018-06-23T12:01:47.568Z,18752.00
2018-06-23T12:02:47.628Z,19328.00
2018-06-23T12:03:47.697Z,19808.00
2018-06-23T12:04:48.011Z,19936.00
2018-06-23T12:05:47.825Z,19264.00
2018-06-23T12:06:48.366Z,18144.00
2018-06-23T12:07:48.627Z,17472.00
2018-06-23T12:08:48.644Z,16532.00
2018-06-23T12:09:48.731Z,15852.00
2018-06-23T12:10:48.436Z,15584.00
2018-06-23T12:11:48.784Z,15472.00
2018-06-23T12:12:48.858Z,15456.00
2018-06-23T12:13:48.972Z,15400.00
2018-06-23T12:14:48.996Z,14504.00
2018-06-23T12:15:49.100Z,13696.00
2018-06-23T12:16:49.341Z,13500.00
2018-06-23T12:17:49.291Z,13452.00